Terminal Aerodrome Forecast
Issued by NWS

Home | Current Version | Previous Version | Text Only | Print | Product List | Glossary On
Versions: 1 2 3 4 5 6 7 8 9 10 11 12 13 14 15 16
625
FTUS41 KBGM 271732
TAFRME
TAF
KRME 271732Z 2718/2818 VRB03KT P6SM BKN070
     FM280300 11003KT P6SM SCT060
      TEMPO 2809/2813 2SM BR
     FM281500 14005KT P6SM BKN050=

USA.gov is the U.S. government's official web portal to all federal, state and local government web resources and services.